createdAt,value
2018-02-21T08:11:18.847Z,97304.31
2018-02-21T08:13:48.431Z,97308.00
2018-02-21T08:16:18.061Z,97310.30
2018-02-21T08:18:47.824Z,97305.55
2018-02-21T08:21:17.634Z,97311.13
2018-02-21T08:23:47.260Z,97300.09
2018-02-21T08:26:17.135Z,97303.52
2018-02-21T08:28:47.158Z,97312.56
2018-02-21T08:31:17.296Z,97309.52
2018-02-21T08:33:46.987Z,97319.82
2018-02-21T08:36:16.570Z,97321.77
2018-02-21T08:38:46.372Z,97325.87
2018-02-21T08:41:18.186Z,97322.52
2018-02-21T08:43:47.708Z,97328.07
2018-02-21T08:46:17.185Z,97330.17
2018-02-21T08:48:46.580Z,97343.84
2018-02-21T08:51:16.189Z,97330.48
2018-02-21T08:53:45.837Z,97327.03
2018-02-21T08:56:16.567Z,97331.18
2018-02-21T08:58:46.848Z,97330.91
2018-02-21T09:01:17.089Z,97335.28
2018-02-21T09:03:46.639Z,97321.70
2018-02-21T09:06:16.076Z,97327.22
2018-02-21T09:08:47.790Z,97329.10
2018-02-21T09:11:17.548Z,97320.41
2018-02-21T09:13:46.939Z,97316.73
2018-02-21T09:16:16.806Z,97321.91
2018-02-21T09:18:46.395Z,97323.89
2018-02-21T09:21:16.242Z,97320.56
2018-02-21T09:23:46.586Z,97314.82
2018-02-21T09:26:16.216Z,97317.84
2018-02-21T09:28:46.665Z,97305.23
2018-02-21T09:31:16.172Z,97310.44
2018-02-21T09:33:45.871Z,97300.58
2018-02-21T09:36:16.194Z,97302.36
2018-02-21T09:38:45.795Z,97300.55
2018-02-21T09:41:16.567Z,97302.10
2018-02-21T09:43:46.175Z,97308.81
2018-02-21T09:46:17.024Z,97307.34
2018-02-21T09:48:48.655Z,97313.08
2018-02-21T09:51:23.563Z,97313.11
2018-02-21T09:53:54.320Z,97313.34
2018-02-21T09:56:24.266Z,97313.19
2018-02-21T09:58:54.306Z,97318.09
2018-02-21T10:01:25.496Z,97321.61
2018-02-21T10:03:57.196Z,97314.40
2018-02-21T10:06:29.949Z,97318.86
2018-02-21T10:09:11.041Z,97315.23
2018-02-21T10:11:44.750Z,97313.88
2018-02-21T10:14:17.775Z,97313.11
2018-02-21T10:16:48.546Z,97317.36
2018-02-21T10:19:18.013Z,97314.94
2018-02-21T10:21:47.906Z,97309.55
2018-02-21T10:24:18.037Z,97307.91
2018-02-21T10:26:58.956Z,97307.08
2018-02-21T10:29:29.195Z,97300.89
2018-02-21T10:32:03.403Z,97302.87
2018-02-21T10:34:33.096Z,97303.03
2018-02-21T10:37:02.814Z,97303.02
2018-02-21T10:39:33.025Z,97301.81
2018-02-21T10:42:03.084Z,97306.10
2018-02-21T10:44:32.715Z,97303.87
2018-02-21T10:47:03.434Z,97300.89
2018-02-21T10:49:32.915Z,97293.19
2018-02-21T10:52:03.817Z,97294.63
2018-02-21T10:54:34.204Z,97285.80
2018-02-21T10:57:03.962Z,97289.52
2018-02-21T10:59:33.412Z,97282.78
2018-02-21T11:02:05.934Z,97289.56
2018-02-21T11:04:36.125Z,97285.49
2018-02-21T11:07:05.594Z,97280.42
2018-02-21T11:09:34.975Z,97274.23
2018-02-21T11:12:04.528Z,97269.59
2018-02-21T11:14:34.261Z,97272.14
2018-02-21T11:17:04.917Z,97270.85
2018-02-21T11:19:35.374Z,97270.38
2018-02-21T11:22:05.221Z,97276.89
2018-02-21T11:24:35.077Z,97270.05
2018-02-21T11:27:04.669Z,97272.36
2018-02-21T11:29:34.472Z,97266.80
2018-02-21T11:32:04.588Z,97263.20
2018-02-21T11:34:34.518Z,97267.20
2018-02-21T11:37:05.142Z,97267.80
2018-02-21T11:39:35.601Z,97264.72
2018-02-21T11:42:06.080Z,97254.12
2018-02-21T11:44:35.720Z,97251.48
2018-02-21T11:47:05.209Z,97245.53
2018-02-21T11:49:34.787Z,97243.13
2018-02-21T11:52:05.154Z,97242.57
2018-02-21T11:54:34.831Z,97245.66
2018-02-21T11:57:05.658Z,97238.85
2018-02-21T11:59:35.846Z,97234.86
2018-02-21T12:02:05.764Z,97238.09
2018-02-21T12:04:35.104Z,97234.85
2018-02-21T12:07:04.648Z,97238.16
2018-02-21T12:09:34.158Z,97245.06
2018-02-21T12:12:03.776Z,97246.62
2018-02-21T12:14:33.592Z,97247.62
2018-02-21T12:17:03.468Z,97244.36
2018-02-21T12:19:32.902Z,97239.16
2018-02-21T12:22:02.413Z,97244.73
2018-02-21T12:24:31.949Z,97243.41
2018-02-21T12:27:01.435Z,97244.28
2018-02-21T12:29:31.061Z,97240.39
2018-02-21T12:32:01.358Z,97246.14
2018-02-21T12:34:30.795Z,97236.64
2018-02-21T12:37:00.548Z,97237.96
2018-02-21T12:39:35.097Z,97242.53
2018-02-21T12:42:04.544Z,97243.81
2018-02-21T12:44:34.145Z,97237.54
2018-02-21T12:47:03.874Z,97236.64
2018-02-21T12:49:33.343Z,97241.07
2018-02-21T12:52:02.938Z,97249.95
2018-02-21T12:54:34.233Z,97244.84
2018-02-21T12:57:04.591Z,97246.11
2018-02-21T12:59:34.376Z,97246.83
2018-02-21T13:02:04.080Z,97243.16
2018-02-21T13:04:33.599Z,97246.16
2018-02-21T13:07:03.145Z,97251.14
2018-02-21T13:09:32.796Z,97250.88
2018-02-21T13:12:02.597Z,97251.08
2018-02-21T13:14:33.347Z,97249.03
2018-02-21T13:17:02.905Z,97252.14
2018-02-21T13:19:32.569Z,97253.81
2018-02-21T13:22:02.286Z,97256.59
2018-02-21T13:24:31.790Z,97258.61
2018-02-21T13:27:02.287Z,97261.33
2018-02-21T13:29:32.690Z,97262.37
2018-02-21T13:32:02.185Z,97265.31
2018-02-21T13:34:31.669Z,97259.11
2018-02-21T13:37:01.607Z,97258.51
2018-02-21T13:39:31.953Z,97263.16
2018-02-21T13:42:01.549Z,97261.03
2018-02-21T13:44:31.224Z,97260.75
2018-02-21T13:47:00.728Z,97258.52
2018-02-21T13:49:30.256Z,97255.17
2018-02-21T13:51:59.813Z,97246.71
2018-02-21T13:54:30.300Z,97251.79
2018-02-21T13:57:25.277Z,97249.20
2018-02-21T13:59:56.618Z,97255.02
2018-02-21T14:02:37.305Z,97248.33
2018-02-21T14:05:07.269Z,97242.92
2018-02-21T14:07:37.660Z,97240.12
2018-02-21T14:10:07.975Z,97235.80
2018-02-21T14:12:37.617Z,97233.44
2018-02-21T14:15:07.246Z,97232.09
2018-02-21T14:17:36.607Z,97229.68
2018-02-21T14:20:09.259Z,97227.92
2018-02-21T14:22:39.274Z,97228.33
2018-02-21T14:25:08.896Z,97226.23
2018-02-21T14:27:38.758Z,97232.55
2018-02-21T14:30:08.535Z,97228.37
2018-02-21T14:32:38.993Z,97221.17
2018-02-21T14:35:08.626Z,97218.34
2018-02-21T14:37:38.244Z,97212.49
2018-02-21T14:40:07.793Z,97209.74
2018-02-21T14:42:37.638Z,97219.83
2018-02-21T14:45:07.195Z,97222.09
2018-02-21T14:47:36.826Z,97220.22
2018-02-21T14:50:06.257Z,97224.05
2018-02-21T14:52:36.668Z,97222.83
2018-02-21T14:55:06.244Z,97229.27
2018-02-21T14:57:35.888Z,97236.48
2018-02-21T15:00:05.588Z,97233.00
2018-02-21T15:02:35.093Z,97232.34
2018-02-21T15:05:04.628Z,97236.56
2018-02-21T15:07:34.241Z,97236.75
2018-02-21T15:10:03.895Z,97237.48
2018-02-21T15:12:33.790Z,97237.32
2018-02-21T15:15:03.736Z,97231.25
2018-02-21T15:17:33.904Z,97236.36
2018-02-21T15:20:05.257Z,97241.71
2018-02-21T15:22:34.932Z,97241.96
2018-02-21T15:25:04.788Z,97247.31
2018-02-21T15:27:34.732Z,97241.92
2018-02-21T15:30:04.541Z,97237.58
2018-02-21T15:32:34.944Z,97247.31
2018-02-21T15:35:04.306Z,97241.25
2018-02-21T15:37:33.794Z,97245.44
2018-02-21T15:40:03.199Z,97247.72
2018-02-21T15:42:32.556Z,97243.27
2018-02-21T15:45:01.882Z,97258.27
2018-02-21T15:47:31.319Z,97250.93
2018-02-21T15:50:00.716Z,97256.13
2018-02-21T15:52:30.244Z,97257.03
2018-02-21T15:54:59.777Z,97261.28
2018-02-21T15:57:31.865Z,97262.80
2018-02-21T16:00:28.088Z,97261.05
2018-02-21T16:03:00.164Z,97262.89
2018-02-21T16:05:29.874Z,97265.57
2018-02-21T16:07:59.348Z,97261.70
2018-02-21T16:10:28.931Z,97261.80
2018-02-21T16:12:58.622Z,97262.39
2018-02-21T16:15:28.871Z,97265.53
2018-02-21T16:17:58.392Z,97268.11
2018-02-21T16:20:27.753Z,97262.41
2018-02-21T16:22:57.160Z,97268.89
2018-02-21T16:25:26.531Z,97272.72
2018-02-21T16:28:03.942Z,97269.95
2018-02-21T16:30:33.566Z,97272.38
2018-02-21T16:33:04.180Z,97268.75
2018-02-21T16:35:33.913Z,97282.42
2018-02-21T16:38:03.490Z,97286.45
2018-02-21T16:40:34.040Z,97289.48
2018-02-21T16:43:03.770Z,97284.08
2018-02-21T16:45:33.371Z,97298.30
2018-02-21T16:48:02.930Z,97292.23
2018-02-21T16:50:33.336Z,97298.80
2018-02-21T16:53:03.014Z,97303.20
2018-02-21T16:55:32.746Z,97300.41
2018-02-21T16:58:02.300Z,97299.33
2018-02-21T17:00:32.583Z,97307.93
2018-02-21T17:03:02.207Z,97303.69
2018-02-21T17:05:31.968Z,97309.73
2018-02-21T17:08:01.741Z,97314.38
2018-02-21T17:10:31.425Z,97316.25
2018-02-21T17:13:01.094Z,97315.33
2018-02-21T17:15:30.640Z,97316.08
2018-02-21T17:18:00.464Z,97317.62
2018-02-21T17:20:29.963Z,97313.50
2018-02-21T17:23:00.168Z,97318.07
2018-02-21T17:25:30.544Z,97314.52
2018-02-21T17:27:59.931Z,97320.34
2018-02-21T17:30:31.614Z,97311.19
2018-02-21T17:33:01.667Z,97311.03
2018-02-21T17:35:31.571Z,97313.48
2018-02-21T17:38:01.192Z,97313.95
2018-02-21T17:40:30.502Z,97318.77
2018-02-21T17:43:00.187Z,97313.97
2018-02-21T17:45:30.725Z,97314.95
2018-02-21T17:48:00.168Z,97313.17
2018-02-21T17:50:29.588Z,97322.45
2018-02-21T17:52:59.661Z,97317.22
2018-02-21T17:55:29.023Z,97317.30
2018-02-21T17:57:59.770Z,97314.88
2018-02-21T18:00:29.479Z,97313.97
2018-02-21T18:03:01.588Z,97314.45
2018-02-21T18:05:31.867Z,97313.41
2018-02-21T18:08:02.867Z,97314.31
2018-02-21T18:10:32.813Z,97315.19
2018-02-21T18:13:02.536Z,97313.23
2018-02-21T18:15:32.241Z,97314.62
2018-02-21T18:18:01.954Z,97319.20
2018-02-21T18:20:31.358Z,97317.25
2018-02-21T18:23:01.037Z,97327.42
2018-02-21T18:25:30.516Z,97330.52
2018-02-21T18:28:00.299Z,97333.08
2018-02-21T18:30:29.710Z,97326.48
2018-02-21T18:32:59.997Z,97325.41
2018-02-21T18:35:29.763Z,97333.63
2018-02-21T18:38:00.180Z,97327.44
2018-02-21T18:40:30.269Z,97333.66
2018-02-21T18:43:00.973Z,97333.15
2018-02-21T18:45:31.635Z,97335.77
2018-02-21T18:48:01.283Z,97339.60
2018-02-21T18:50:30.907Z,97348.51
2018-02-21T18:53:01.631Z,97352.08
2018-02-21T18:55:31.150Z,97358.78
2018-02-21T18:58:01.358Z,97349.73
2018-02-21T19:00:31.290Z,97353.31
2018-02-21T19:03:02.021Z,97355.91
2018-02-21T19:05:32.795Z,97358.48
2018-02-21T19:08:03.558Z,97372.94
2018-02-21T19:10:34.273Z,97369.14
2018-02-21T19:13:04.805Z,97370.15
2018-02-21T19:15:39.170Z,97373.04
2018-02-21T19:18:09.583Z,97376.19
2018-02-21T19:20:39.488Z,97382.59
2018-02-21T19:23:09.279Z,97378.47
2018-02-21T19:25:39.126Z,97381.61
2018-02-21T19:28:09.907Z,97384.09
2018-02-21T19:30:39.711Z,97379.30
2018-02-21T19:33:10.469Z,97378.66
2018-02-21T19:35:40.764Z,97377.45
2018-02-21T19:38:11.994Z,97382.65
2018-02-21T19:41:02.588Z,97378.36
2018-02-21T19:43:33.228Z,97373.52
2018-02-21T19:46:09.428Z,97375.11
2018-02-21T19:48:39.939Z,97378.03
2018-02-21T19:51:09.714Z,97379.41
2018-02-21T19:53:39.362Z,97374.56
2018-02-21T19:56:09.083Z,97377.34
2018-02-21T19:58:38.793Z,97380.62
2018-02-21T20:01:08.577Z,97380.66
2018-02-21T20:03:38.066Z,97374.52
2018-02-21T20:06:07.675Z,97371.48
2018-02-21T20:08:37.191Z,97366.58
2018-02-21T20:11:07.367Z,97369.63
2018-02-21T20:13:37.633Z,97362.84
2018-02-21T20:16:07.293Z,97363.34
2018-02-21T20:18:37.166Z,97367.75
2018-02-21T20:21:06.570Z,97372.09
2018-02-21T20:23:36.102Z,97371.95
2018-02-21T20:26:06.696Z,97368.73
2018-02-21T20:28:37.263Z,97373.13
2018-02-21T20:31:06.701Z,97370.78
2018-02-21T20:33:36.486Z,97368.95
2018-02-21T20:36:06.208Z,97366.70
2018-02-21T20:38:36.082Z,97366.09
2018-02-21T20:41:05.704Z,97367.66
2018-02-21T20:43:36.174Z,97365.58
2018-02-21T20:46:06.556Z,97368.50
2018-02-21T20:48:36.593Z,97360.84
2018-02-21T20:51:06.561Z,97358.35
2018-02-21T20:53:37.695Z,97356.12
2018-02-21T20:56:07.438Z,97359.33
2018-02-21T20:58:37.603Z,97357.48
2018-02-21T21:01:07.452Z,97348.94
2018-02-21T21:03:37.261Z,97347.33
2018-02-21T21:06:07.500Z,97350.63
2018-02-21T21:08:38.074Z,97347.94
2018-02-21T21:11:07.923Z,97346.78
2018-02-21T21:13:38.693Z,97346.65
2018-02-21T21:16:08.249Z,97345.06
2018-02-21T21:18:38.071Z,97354.86
2018-02-21T21:21:07.772Z,97352.17
2018-02-21T21:23:37.682Z,97348.76
2018-02-21T21:26:07.957Z,97350.56
2018-02-21T21:28:38.407Z,97349.97
2018-02-21T21:31:08.577Z,97343.77
2018-02-21T21:33:38.211Z,97345.08
2018-02-21T21:36:07.622Z,97344.62
2018-02-21T21:38:37.428Z,97346.05
2018-02-21T21:41:07.171Z,97342.94
2018-02-21T21:43:36.994Z,97339.44
2018-02-21T21:46:07.133Z,97330.95
2018-02-21T21:48:36.631Z,97341.67
2018-02-21T21:51:07.130Z,97333.80
2018-02-21T21:53:36.963Z,97334.69
2018-02-21T21:56:06.846Z,97339.45
2018-02-21T21:58:36.923Z,97347.08
2018-02-21T22:01:06.659Z,97341.02
2018-02-21T22:03:37.220Z,97337.30
2018-02-21T22:06:07.061Z,97338.47
2018-02-21T22:08:36.824Z,97335.61
2018-02-21T22:11:06.598Z,97336.34
2018-02-21T22:13:36.631Z,97347.25
2018-02-21T22:16:06.320Z,97341.33
2018-02-21T22:18:35.663Z,97337.94
2018-02-21T22:21:05.090Z,97337.85
2018-02-21T22:23:35.184Z,97335.97
2018-02-21T22:26:05.939Z,97336.88
2018-02-21T22:28:35.558Z,97333.65
2018-02-21T22:31:05.132Z,97332.94
2018-02-21T22:33:35.331Z,97334.27
2018-02-21T22:36:05.660Z,97336.52
2018-02-21T22:38:36.197Z,97337.62
2018-02-21T22:41:05.843Z,97332.02
2018-02-21T22:43:35.870Z,97332.45
2018-02-21T22:46:05.554Z,97335.73
2018-02-21T22:48:35.027Z,97332.69
2018-02-21T22:51:04.750Z,97325.18
2018-02-21T22:53:34.761Z,97320.95
2018-02-21T22:56:04.660Z,97322.02
2018-02-21T22:58:34.782Z,97319.67
2018-02-21T23:01:04.537Z,97314.83
2018-02-21T23:03:34.125Z,97315.59
2018-02-21T23:06:04.531Z,97313.55
2018-02-21T23:08:35.196Z,97317.41
2018-02-21T23:11:04.715Z,97315.14
2018-02-21T23:13:34.540Z,97308.89
2018-02-21T23:16:04.047Z,97310.80
2018-02-21T23:18:34.610Z,97313.98
2018-02-21T23:21:04.208Z,97311.19
2018-02-21T23:23:35.294Z,97316.30
2018-02-21T23:26:05.452Z,97321.36
2018-02-21T23:28:35.062Z,97323.23
2018-02-21T23:31:04.647Z,97325.87
2018-02-21T23:33:34.529Z,97329.92
2018-02-21T23:36:04.403Z,97317.98
2018-02-21T23:38:34.247Z,97315.78
2018-02-21T23:41:04.054Z,97305.93
2018-02-21T23:43:33.921Z,97300.48
2018-02-21T23:46:03.822Z,97306.09
2018-02-21T23:48:33.624Z,97307.78
2018-02-21T23:51:03.404Z,97302.86
2018-02-21T23:53:34.172Z,97312.80
2018-02-21T23:56:04.493Z,97306.08
2018-02-21T23:58:34.328Z,97303.35
